sensor_id;sensor_type;location;lat;lon;timestamp;P1;durP1;ratioP1;P2;durP2;ratioP2
17504;SDS011;8870;50.950;11.762;2023-04-25T00:02:11;5.38;;;2.20;;
17504;SDS011;8870;50.950;11.762;2023-04-25T00:07:33;3.13;;;2.08;;
17504;SDS011;8870;50.950;11.762;2023-04-25T00:13:05;4.07;;;2.45;;
17504;SDS011;8870;50.950;11.762;2023-04-25T00:18:25;3.40;;;2.30;;
17504;SDS011;8870;50.950;11.762;2023-04-25T00:24:00;3.25;;;2.50;;
17504;SDS011;8870;50.950;11.762;2023-04-25T00:29:18;3.97;;;2.40;;
17504;SDS011;8870;50.950;11.762;2023-04-25T00:34:50;4.07;;;2.38;;
17504;SDS011;8870;50.950;11.762;2023-04-25T00:40:13;4.32;;;2.38;;
17504;SDS011;8870;50.950;11.762;2023-04-25T00:45:44;2.70;;;2.28;;
17504;SDS011;8870;50.950;11.762;2023-04-25T00:51:05;3.85;;;2.30;;
17504;SDS011;8870;50.950;11.762;2023-04-25T00:56:39;4.75;;;2.80;;
17504;SDS011;8870;50.950;11.762;2023-04-25T01:02:04;3.92;;;2.30;;
17504;SDS011;8870;50.950;11.762;2023-04-25T01:07:35;3.00;;;2.30;;
17504;SDS011;8870;50.950;11.762;2023-04-25T01:12:57;3.75;;;2.50;;
17504;SDS011;8870;50.950;11.762;2023-04-25T01:18:28;2.53;;;2.30;;
17504;SDS011;8870;50.950;11.762;2023-04-25T01:23:49;3.75;;;2.40;;
17504;SDS011;8870;50.950;11.762;2023-04-25T01:29:23;3.60;;;2.50;;
17504;SDS011;8870;50.950;11.762;2023-04-25T01:40:19;4.07;;;2.80;;
17504;SDS011;8870;50.950;11.762;2023-04-25T01:45:39;3.72;;;2.40;;
17504;SDS011;8870;50.950;11.762;2023-04-25T01:51:10;4.32;;;2.63;;
17504;SDS011;8870;50.950;11.762;2023-04-25T01:56:32;2.97;;;2.53;;
17504;SDS011;8870;50.950;11.762;2023-04-25T02:02:06;4.30;;;2.40;;
17504;SDS011;8870;50.950;11.762;2023-04-25T02:07:37;3.37;;;2.47;;
17504;SDS011;8870;50.950;11.762;2023-04-25T02:13:02;3.65;;;2.53;;
17504;SDS011;8870;50.950;11.762;2023-04-25T02:18:43;2.92;;;2.15;;
17504;SDS011;8870;50.950;11.762;2023-04-25T02:24:05;2.65;;;2.42;;
17504;SDS011;8870;50.950;11.762;2023-04-25T02:29:39;3.75;;;2.38;;
17504;SDS011;8870;50.950;11.762;2023-04-25T02:35:05;2.90;;;2.25;;
17504;SDS011;8870;50.950;11.762;2023-04-25T02:40:37;4.78;;;2.50;;
17504;SDS011;8870;50.950;11.762;2023-04-25T02:45:58;5.28;;;2.60;;
17504;SDS011;8870;50.950;11.762;2023-04-25T02:51:36;3.13;;;2.50;;
17504;SDS011;8870;50.950;11.762;2023-04-25T02:56:55;3.63;;;2.40;;
17504;SDS011;8870;50.950;11.762;2023-04-25T03:02:29;6.07;;;2.60;;
17504;SDS011;8870;50.950;11.762;2023-04-25T03:08:00;3.30;;;2.40;;
17504;SDS011;8870;50.950;11.762;2023-04-25T03:13:19;3.90;;;2.10;;
17504;SDS011;8870;50.950;11.762;2023-04-25T03:18:55;2.90;;;2.30;;
17504;SDS011;8870;50.950;11.762;2023-04-25T03:24:14;4.13;;;2.22;;
17504;SDS011;8870;50.950;11.762;2023-04-25T03:29:44;3.83;;;2.33;;
17504;SDS011;8870;50.950;11.762;2023-04-25T03:35:06;4.03;;;2.50;;
17504;SDS011;8870;50.950;11.762;2023-04-25T03:40:38;4.13;;;2.38;;
17504;SDS011;8870;50.950;11.762;2023-04-25T03:46:21;3.30;;;2.50;;
17504;SDS011;8870;50.950;11.762;2023-04-25T03:51:55;4.50;;;2.50;;
17504;SDS011;8870;50.950;11.762;2023-04-25T03:57:15;5.05;;;2.58;;
17504;SDS011;8870;50.950;11.762;2023-04-25T04:02:47;6.13;;;2.05;;
17504;SDS011;8870;50.950;11.762;2023-04-25T04:08:21;3.90;;;2.20;;
17504;SDS011;8870;50.950;11.762;2023-04-25T04:13:48;5.07;;;2.50;;
17504;SDS011;8870;50.950;11.762;2023-04-25T04:19:23;4.18;;;2.45;;
17504;SDS011;8870;50.950;11.762;2023-04-25T04:24:51;4.15;;;2.40;;
17504;SDS011;8870;50.950;11.762;2023-04-25T04:30:42;3.35;;;2.50;;
17504;SDS011;8870;50.950;11.762;2023-04-25T04:36:01;4.00;;;2.50;;
17504;SDS011;8870;50.950;11.762;2023-04-25T04:41:35;6.28;;;2.83;;
17504;SDS011;8870;50.950;11.762;2023-04-25T04:47:23;2.95;;;2.60;;
17504;SDS011;8870;50.950;11.762;2023-04-25T04:53:13;5.28;;;3.05;;
17504;SDS011;8870;50.950;11.762;2023-04-25T04:59:06;6.03;;;3.08;;
17504;SDS011;8870;50.950;11.762;2023-04-25T05:04:40;6.43;;;3.03;;
17504;SDS011;8870;50.950;11.762;2023-04-25T05:10:29;4.15;;;3.00;;
17504;SDS011;8870;50.950;11.762;2023-04-25T05:16:25;4.60;;;2.95;;
17504;SDS011;8870;50.950;11.762;2023-04-25T05:22:16;4.50;;;3.22;;
17504;SDS011;8870;50.950;11.762;2023-04-25T05:27:58;3.53;;;2.95;;
17504;SDS011;8870;50.950;11.762;2023-04-25T05:33:39;4.75;;;2.60;;
17504;SDS011;8870;50.950;11.762;2023-04-25T05:39:25;6.00;;;2.55;;
17504;SDS011;8870;50.950;11.762;2023-04-25T05:45:02;5.10;;;2.60;;
17504;SDS011;8870;50.950;11.762;2023-04-25T05:51:10;5.75;;;2.70;;
17504;SDS011;8870;50.950;11.762;2023-04-25T05:56:56;5.65;;;2.70;;
17504;SDS011;8870;50.950;11.762;2023-04-25T06:02:27;4.13;;;2.30;;
17504;SDS011;8870;50.950;11.762;2023-04-25T06:07:51;4.35;;;2.30;;
17504;SDS011;8870;50.950;11.762;2023-04-25T06:13:23;3.53;;;2.00;;
17504;SDS011;8870;50.950;11.762;2023-04-25T06:18:42;4.88;;;2.60;;
17504;SDS011;8870;50.950;11.762;2023-04-25T06:24:15;4.85;;;2.38;;
17504;SDS011;8870;50.950;11.762;2023-04-25T06:29:37;6.20;;;2.40;;
17504;SDS011;8870;50.950;11.762;2023-04-25T06:35:08;4.93;;;1.92;;
17504;SDS011;8870;50.950;11.762;2023-04-25T06:40:30;4.32;;;2.30;;
17504;SDS011;8870;50.950;11.762;2023-04-25T06:46:01;4.15;;;2.13;;
17504;SDS011;8870;50.950;11.762;2023-04-25T06:51:22;4.50;;;2.20;;
17504;SDS011;8870;50.950;11.762;2023-04-25T06:56:56;3.38;;;1.95;;
17504;SDS011;8870;50.950;11.762;2023-04-25T07:02:16;2.60;;;1.98;;
17504;SDS011;8870;50.950;11.762;2023-04-25T07:07:47;4.05;;;2.20;;
17504;SDS011;8870;50.950;11.762;2023-04-25T07:13:08;3.70;;;2.03;;
17504;SDS011;8870;50.950;11.762;2023-04-25T07:18:39;5.03;;;2.20;;
17504;SDS011;8870;50.950;11.762;2023-04-25T07:23:58;3.83;;;1.80;;
17504;SDS011;8870;50.950;11.762;2023-04-25T07:29:33;3.63;;;2.00;;
17504;SDS011;8870;50.950;11.762;2023-04-25T07:34:52;2.50;;;1.52;;
17504;SDS011;8870;50.950;11.762;2023-04-25T07:40:24;3.28;;;2.05;;
17504;SDS011;8870;50.950;11.762;2023-04-25T07:45:48;4.60;;;2.03;;
17504;SDS011;8870;50.950;11.762;2023-04-25T07:51:19;3.28;;;1.98;;
17504;SDS011;8870;50.950;11.762;2023-04-25T07:56:52;3.05;;;1.77;;
17504;SDS011;8870;50.950;11.762;2023-04-25T08:02:14;2.40;;;1.70;;
17504;SDS011;8870;50.950;11.762;2023-04-25T08:07:51;2.50;;;1.73;;
17504;SDS011;8870;50.950;11.762;2023-04-25T08:13:11;4.72;;;1.80;;
17504;SDS011;8870;50.950;11.762;2023-04-25T08:18:45;1.98;;;1.60;;
17504;SDS011;8870;50.950;11.762;2023-04-25T08:24:04;2.45;;;1.58;;
17504;SDS011;8870;50.950;11.762;2023-04-25T08:29:35;3.15;;;1.65;;
17504;SDS011;8870;50.950;11.762;2023-04-25T08:34:57;2.75;;;1.75;;
17504;SDS011;8870;50.950;11.762;2023-04-25T08:40:30;3.45;;;1.60;;
17504;SDS011;8870;50.950;11.762;2023-04-25T08:45:54;2.40;;;1.70;;
17504;SDS011;8870;50.950;11.762;2023-04-25T08:51:51;3.28;;;1.92;;
17504;SDS011;8870;50.950;11.762;2023-04-25T08:57:25;3.47;;;1.95;;
17504;SDS011;8870;50.950;11.762;2023-04-25T09:02:45;2.30;;;1.80;;
17504;SDS011;8870;50.950;11.762;2023-04-25T09:08:21;2.90;;;1.77;;
17504;SDS011;8870;50.950;11.762;2023-04-25T09:13:40;2.63;;;1.90;;
17504;SDS011;8870;50.950;11.762;2023-04-25T09:19:32;3.78;;;2.20;;
17504;SDS011;8870;50.950;11.762;2023-04-25T09:25:07;3.55;;;2.13;;
17504;SDS011;8870;50.950;11.762;2023-04-25T09:30:38;3.95;;;2.17;;
17504;SDS011;8870;50.950;11.762;2023-04-25T09:36:03;3.55;;;2.03;;
17504;SDS011;8870;50.950;11.762;2023-04-25T09:42:10;3.22;;;1.88;;
17504;SDS011;8870;50.950;11.762;2023-04-25T09:47:41;1.58;;;1.45;;
17504;SDS011;8870;50.950;11.762;2023-04-25T09:53:11;2.97;;;1.77;;
17504;SDS011;8870;50.950;11.762;2023-04-25T09:58:54;2.45;;;1.45;;
17504;SDS011;8870;50.950;11.762;2023-04-25T10:04:13;1.85;;;1.48;;
17504;SDS011;8870;50.950;11.762;2023-04-25T10:09:59;1.58;;;1.40;;
17504;SDS011;8870;50.950;11.762;2023-04-25T10:15:21;1.95;;;1.40;;
17504;SDS011;8870;50.950;11.762;2023-04-25T10:20:54;2.92;;;1.63;;
17504;SDS011;8870;50.950;11.762;2023-04-25T10:26:13;2.75;;;1.35;;
17504;SDS011;8870;50.950;11.762;2023-04-25T10:31:47;2.83;;;1.20;;
17504;SDS011;8870;50.950;11.762;2023-04-25T10:37:08;3.20;;;1.30;;
17504;SDS011;8870;50.950;11.762;2023-04-25T10:42:40;4.88;;;1.73;;
17504;SDS011;8870;50.950;11.762;2023-04-25T10:48:01;6.10;;;1.80;;
17504;SDS011;8870;50.950;11.762;2023-04-25T10:53:33;5.18;;;1.83;;
17504;SDS011;8870;50.950;11.762;2023-04-25T10:59:04;7.27;;;2.07;;
17504;SDS011;8870;50.950;11.762;2023-04-25T11:04:28;6.55;;;2.03;;
17504;SDS011;8870;50.950;11.762;2023-04-25T11:10:01;5.22;;;1.75;;
17504;SDS011;8870;50.950;11.762;2023-04-25T11:15:21;5.78;;;1.73;;
17504;SDS011;8870;50.950;11.762;2023-04-25T11:20:55;4.45;;;1.67;;
17504;SDS011;8870;50.950;11.762;2023-04-25T11:26:14;5.97;;;1.60;;
17504;SDS011;8870;50.950;11.762;2023-04-25T11:31:44;5.63;;;1.75;;
17504;SDS011;8870;50.950;11.762;2023-04-25T11:37:05;5.60;;;1.45;;
17504;SDS011;8870;50.950;11.762;2023-04-25T11:42:37;5.55;;;1.52;;
17504;SDS011;8870;50.950;11.762;2023-04-25T11:47:56;6.63;;;1.75;;
17504;SDS011;8870;50.950;11.762;2023-04-25T11:53:31;5.97;;;1.67;;
17504;SDS011;8870;50.950;11.762;2023-04-25T11:59:03;7.35;;;2.10;;
17504;SDS011;8870;50.950;11.762;2023-04-25T12:04:23;6.43;;;1.80;;
17504;SDS011;8870;50.950;11.762;2023-04-25T12:09:59;4.47;;;1.67;;
17504;SDS011;8870;50.950;11.762;2023-04-25T12:15:23;8.77;;;1.90;;
17504;SDS011;8870;50.950;11.762;2023-04-25T12:20:57;5.72;;;1.80;;
17504;SDS011;8870;50.950;11.762;2023-04-25T12:26:20;5.18;;;1.85;;
17504;SDS011;8870;50.950;11.762;2023-04-25T12:31:53;9.27;;;1.92;;
17504;SDS011;8870;50.950;11.762;2023-04-25T12:37:12;4.93;;;1.77;;
17504;SDS011;8870;50.950;11.762;2023-04-25T12:42:46;6.47;;;1.90;;
17504;SDS011;8870;50.950;11.762;2023-04-25T12:48:05;4.90;;;1.85;;
17504;SDS011;8870;50.950;11.762;2023-04-25T12:53:36;3.97;;;1.40;;
17504;SDS011;8870;50.950;11.762;2023-04-25T12:59:09;5.10;;;1.60;;
17504;SDS011;8870;50.950;11.762;2023-04-25T13:04:28;4.60;;;1.48;;
17504;SDS011;8870;50.950;11.762;2023-04-25T13:09:59;4.75;;;1.33;;
17504;SDS011;8870;50.950;11.762;2023-04-25T13:15:27;3.90;;;1.20;;
17504;SDS011;8870;50.950;11.762;2023-04-25T13:21:00;3.05;;;1.27;;
17504;SDS011;8870;50.950;11.762;2023-04-25T13:26:18;5.97;;;1.30;;
17504;SDS011;8870;50.950;11.762;2023-04-25T13:31:51;3.60;;;1.30;;
17504;SDS011;8870;50.950;11.762;2023-04-25T13:37:10;3.25;;;1.25;;
17504;SDS011;8870;50.950;11.762;2023-04-25T13:42:42;6.65;;;1.42;;
17504;SDS011;8870;50.950;11.762;2023-04-25T13:48:03;3.67;;;1.40;;
17504;SDS011;8870;50.950;11.762;2023-04-25T13:53:34;4.38;;;1.27;;
17504;SDS011;8870;50.950;11.762;2023-04-25T13:58:52;4.53;;;1.23;;
17504;SDS011;8870;50.950;11.762;2023-04-25T14:04:25;3.70;;;1.40;;
17504;SDS011;8870;50.950;11.762;2023-04-25T14:09:45;3.17;;;1.30;;
17504;SDS011;8870;50.950;11.762;2023-04-25T14:15:16;5.72;;;1.40;;
17504;SDS011;8870;50.950;11.762;2023-04-25T14:20:37;4.80;;;1.25;;
17504;SDS011;8870;50.950;11.762;2023-04-25T14:26:10;5.47;;;1.50;;
17504;SDS011;8870;50.950;11.762;2023-04-25T14:31:28;5.50;;;1.33;;
17504;SDS011;8870;50.950;11.762;2023-04-25T14:37:01;4.63;;;1.20;;
17504;SDS011;8870;50.950;11.762;2023-04-25T14:42:20;6.00;;;1.58;;
17504;SDS011;8870;50.950;11.762;2023-04-25T14:47:52;5.00;;;1.63;;
17504;SDS011;8870;50.950;11.762;2023-04-25T14:53:12;4.97;;;1.25;;
17504;SDS011;8870;50.950;11.762;2023-04-25T14:58:44;3.58;;;1.20;;
17504;SDS011;8870;50.950;11.762;2023-04-25T15:04:03;4.22;;;1.45;;
17504;SDS011;8870;50.950;11.762;2023-04-25T15:09:38;5.07;;;1.25;;
17504;SDS011;8870;50.950;11.762;2023-04-25T15:14:57;3.47;;;1.15;;
17504;SDS011;8870;50.950;11.762;2023-04-25T15:20:41;5.13;;;1.40;;
17504;SDS011;8870;50.950;11.762;2023-04-25T15:26:02;3.40;;;1.20;;
17504;SDS011;8870;50.950;11.762;2023-04-25T15:31:33;3.85;;;1.30;;
17504;SDS011;8870;50.950;11.762;2023-04-25T15:36:51;4.57;;;1.33;;
17504;SDS011;8870;50.950;11.762;2023-04-25T15:42:25;5.20;;;1.33;;
17504;SDS011;8870;50.950;11.762;2023-04-25T15:47:44;4.55;;;1.30;;
17504;SDS011;8870;50.950;11.762;2023-04-25T15:53:16;3.38;;;1.10;;
17504;SDS011;8870;50.950;11.762;2023-04-25T15:58:37;4.03;;;1.40;;
17504;SDS011;8870;50.950;11.762;2023-04-25T16:04:08;5.15;;;1.10;;
17504;SDS011;8870;50.950;11.762;2023-04-25T16:09:26;5.82;;;1.30;;
17504;SDS011;8870;50.950;11.762;2023-04-25T16:15:01;3.55;;;1.20;;
17504;SDS011;8870;50.950;11.762;2023-04-25T16:20:20;3.60;;;1.30;;
17504;SDS011;8870;50.950;11.762;2023-04-25T16:25:52;3.90;;;0.90;;
17504;SDS011;8870;50.950;11.762;2023-04-25T16:31:15;3.42;;;1.10;;
17504;SDS011;8870;50.950;11.762;2023-04-25T16:36:46;4.57;;;1.20;;
17504;SDS011;8870;50.950;11.762;2023-04-25T16:42:05;4.35;;;1.20;;
17504;SDS011;8870;50.950;11.762;2023-04-25T16:47:41;3.83;;;1.10;;
17504;SDS011;8870;50.950;11.762;2023-04-25T16:53:00;2.08;;;1.08;;
17504;SDS011;8870;50.950;11.762;2023-04-25T16:58:32;3.92;;;1.15;;
17504;SDS011;8870;50.950;11.762;2023-04-25T17:03:53;3.08;;;0.90;;
17504;SDS011;8870;50.950;11.762;2023-04-25T17:09:24;2.70;;;1.20;;
17504;SDS011;8870;50.950;11.762;2023-04-25T17:14:42;2.38;;;1.02;;
17504;SDS011;8870;50.950;11.762;2023-04-25T17:20:16;3.08;;;1.15;;
17504;SDS011;8870;50.950;11.762;2023-04-25T17:25:35;5.63;;;1.33;;
17504;SDS011;8870;50.950;11.762;2023-04-25T17:31:06;4.70;;;1.30;;
17504;SDS011;8870;50.950;11.762;2023-04-25T17:36:27;2.55;;;1.02;;
17504;SDS011;8870;50.950;11.762;2023-04-25T17:41:58;4.93;;;1.05;;
17504;SDS011;8870;50.950;11.762;2023-04-25T17:47:16;3.63;;;1.25;;
17504;SDS011;8870;50.950;11.762;2023-04-25T17:52:50;4.07;;;1.35;;
17504;SDS011;8870;50.950;11.762;2023-04-25T17:58:09;3.45;;;1.17;;
17504;SDS011;8870;50.950;11.762;2023-04-25T18:03:41;3.58;;;1.20;;
17504;SDS011;8870;50.950;11.762;2023-04-25T18:09:05;2.95;;;1.10;;
17504;SDS011;8870;50.950;11.762;2023-04-25T18:14:43;5.00;;;1.30;;
17504;SDS011;8870;50.950;11.762;2023-04-25T18:20:01;3.13;;;1.10;;
17504;SDS011;8870;50.950;11.762;2023-04-25T18:25:37;4.97;;;1.30;;
17504;SDS011;8870;50.950;11.762;2023-04-25T18:30:59;3.88;;;1.30;;
17504;SDS011;8870;50.950;11.762;2023-04-25T18:36:32;3.15;;;1.25;;
17504;SDS011;8870;50.950;11.762;2023-04-25T18:41:53;7.00;;;1.40;;
17504;SDS011;8870;50.950;11.762;2023-04-25T18:47:24;3.97;;;1.40;;
17504;SDS011;8870;50.950;11.762;2023-04-25T18:52:43;4.57;;;1.13;;
17504;SDS011;8870;50.950;11.762;2023-04-25T18:58:18;3.35;;;1.13;;
17504;SDS011;8870;50.950;11.762;2023-04-25T19:03:36;3.60;;;1.30;;
17504;SDS011;8870;50.950;11.762;2023-04-25T19:09:19;3.15;;;1.10;;
17504;SDS011;8870;50.950;11.762;2023-04-25T19:14:41;2.85;;;1.10;;
17504;SDS011;8870;50.950;11.762;2023-04-25T19:20:14;3.15;;;1.20;;
17504;SDS011;8870;50.950;11.762;2023-04-25T19:25:34;3.28;;;1.10;;
17504;SDS011;8870;50.950;11.762;2023-04-25T19:31:09;3.53;;;1.00;;
17504;SDS011;8870;50.950;11.762;2023-04-25T19:36:27;2.67;;;0.98;;
17504;SDS011;8870;50.950;11.762;2023-04-25T19:41:59;2.95;;;0.90;;
17504;SDS011;8870;50.950;11.762;2023-04-25T19:47:21;4.15;;;1.13;;
17504;SDS011;8870;50.950;11.762;2023-04-25T19:52:53;3.55;;;1.27;;
17504;SDS011;8870;50.950;11.762;2023-04-25T19:58:25;2.67;;;1.30;;
17504;SDS011;8870;50.950;11.762;2023-04-25T20:03:47;3.90;;;1.33;;
17504;SDS011;8870;50.950;11.762;2023-04-25T20:09:18;3.67;;;1.20;;
17504;SDS011;8870;50.950;11.762;2023-04-25T20:14:37;3.42;;;1.17;;
17504;SDS011;8870;50.950;11.762;2023-04-25T20:20:11;2.85;;;1.15;;
17504;SDS011;8870;50.950;11.762;2023-04-25T20:25:31;2.38;;;1.00;;
17504;SDS011;8870;50.950;11.762;2023-04-25T20:31:03;3.53;;;1.30;;
17504;SDS011;8870;50.950;11.762;2023-04-25T20:36:24;3.95;;;1.25;;
17504;SDS011;8870;50.950;11.762;2023-04-25T20:41:56;2.65;;;1.13;;
17504;SDS011;8870;50.950;11.762;2023-04-25T20:47:15;2.65;;;1.10;;
17504;SDS011;8870;50.950;11.762;2023-04-25T20:52:48;2.67;;;1.20;;
17504;SDS011;8870;50.950;11.762;2023-04-25T20:58:07;3.75;;;1.30;;
17504;SDS011;8870;50.950;11.762;2023-04-25T21:03:38;2.55;;;1.30;;
17504;SDS011;8870;50.950;11.762;2023-04-25T21:08:59;3.78;;;1.30;;
17504;SDS011;8870;50.950;11.762;2023-04-25T21:14:30;4.45;;;1.40;;
17504;SDS011;8870;50.950;11.762;2023-04-25T21:19:48;4.40;;;1.23;;
17504;SDS011;8870;50.950;11.762;2023-04-25T21:25:22;2.83;;;1.10;;
17504;SDS011;8870;50.950;11.762;2023-04-25T21:30:44;3.10;;;1.30;;
17504;SDS011;8870;50.950;11.762;2023-04-25T21:36:16;2.33;;;1.15;;
17504;SDS011;8870;50.950;11.762;2023-04-25T21:41:37;3.45;;;1.40;;
17504;SDS011;8870;50.950;11.762;2023-04-25T21:47:09;3.55;;;1.50;;
17504;SDS011;8870;50.950;11.762;2023-04-25T21:52:27;4.88;;;1.50;;
17504;SDS011;8870;50.950;11.762;2023-04-25T21:58:02;3.78;;;1.48;;
17504;SDS011;8870;50.950;11.762;2023-04-25T22:03:20;2.97;;;1.25;;
17504;SDS011;8870;50.950;11.762;2023-04-25T22:08:51;2.83;;;1.15;;
17504;SDS011;8870;50.950;11.762;2023-04-25T22:14:13;5.70;;;1.60;;
17504;SDS011;8870;50.950;11.762;2023-04-25T22:19:45;3.30;;;1.50;;
17504;SDS011;8870;50.950;11.762;2023-04-25T22:25:03;3.60;;;1.30;;
17504;SDS011;8870;50.950;11.762;2023-04-25T22:30:39;4.95;;;1.30;;
17504;SDS011;8870;50.950;11.762;2023-04-25T22:35:58;3.65;;;1.40;;
17504;SDS011;8870;50.950;11.762;2023-04-25T22:41:30;2.80;;;1.30;;
17504;SDS011;8870;50.950;11.762;2023-04-25T22:46:51;4.32;;;1.40;;
17504;SDS011;8870;50.950;11.762;2023-04-25T22:52:22;2.58;;;1.15;;
17504;SDS011;8870;50.950;11.762;2023-04-25T22:57:48;3.33;;;1.10;;
17504;SDS011;8870;50.950;11.762;2023-04-25T23:03:21;2.13;;;1.17;;
17504;SDS011;8870;50.950;11.762;2023-04-25T23:08:40;3.47;;;1.10;;
17504;SDS011;8870;50.950;11.762;2023-04-25T23:14:11;4.35;;;1.20;;
17504;SDS011;8870;50.950;11.762;2023-04-25T23:19:32;3.10;;;1.20;;
17504;SDS011;8870;50.950;11.762;2023-04-25T23:25:03;3.03;;;1.20;;
17504;SDS011;8870;50.950;11.762;2023-04-25T23:30:24;3.33;;;1.25;;
17504;SDS011;8870;50.950;11.762;2023-04-25T23:35:58;2.67;;;1.20;;
17504;SDS011;8870;50.950;11.762;2023-04-25T23:41:16;3.53;;;1.20;;
17504;SDS011;8870;50.950;11.762;2023-04-25T23:46:48;3.85;;;1.20;;
17504;SDS011;8870;50.950;11.762;2023-04-25T23:52:09;2.97;;;1.13;;
17504;SDS011;8870;50.950;11.762;2023-04-25T23:57:40;2.90;;;1.10;;
